Time;durP1;ratioP1;P1;durP2;ratioP2;P2;SDS_P1;SDS_P2;PMS_P1;PMS_P2;Temp;Humidity;BMP_temperature;BMP_pressure;BME280_temperature;BME280_humidity;BME280_pressure;Samples;Min_cycle;Max_cycle;Signal;HPM_P1;HPM_P2
2023/02/03 00:00:40;;;;;;;2.38;1.08;;;;;;;1.41;100.00;94196.41;2057263;28;20039;-85
2023/02/03 00:01:41;;;;;;;4.35;1.02;;;;;;;1.25;100.00;94201.56;2059319;28;20022;-86
2023/02/03 00:02:42;;;;;;;2.88;0.95;;;;;;;1.22;100.00;94196.94;2057124;28;20029;-88
2023/02/03 00:03:43;;;;;;;1.52;0.90;;;;;;;1.47;100.00;94202.22;2051547;28;20019;-88
2023/02/03 00:04:44;;;;;;;2.75;1.38;;;;;;;1.30;100.00;94199.81;2054118;28;20078;-87
2023/02/03 00:05:46;;;;;;;2.75;0.80;;;;;;;1.23;100.00;94200.38;2072336;28;20034;-85
2023/02/03 00:06:47;;;;;;;2.28;1.25;;;;;;;1.40;100.00;94204.63;2058963;28;20053;-85
2023/02/03 00:07:54;;;;;;;1.10;0.90;;;;;;;1.69;100.00;94198.34;2064961;28;20014;-86
2023/02/03 00:08:58;;;;;;;2.03;0.98;;;;;;;1.60;100.00;94201.09;2068168;28;20350;-87
2023/02/03 00:09:59;;;;;;;2.65;0.90;;;;;;;1.46;100.00;94196.19;2072124;28;20053;-85
2023/02/03 00:11:00;;;;;;;3.47;0.90;;;;;;;1.30;100.00;94203.19;2071299;28;20088;-86
2023/02/03 00:12:01;;;;;;;3.35;0.95;;;;;;;1.24;100.00;94207.16;2055461;28;20464;-85
2023/02/03 00:13:02;;;;;;;5.85;1.08;;;;;;;1.18;100.00;94206.59;2068091;28;20029;-84
2023/02/03 00:14:04;;;;;;;1.85;1.17;;;;;;;1.27;100.00;94203.84;2049315;28;20114;-86
2023/02/03 00:15:05;;;;;;;1.65;1.10;;;;;;;1.20;100.00;94207.06;2054838;28;20027;-84
2023/02/03 00:16:06;;;;;;;3.65;1.10;;;;;;;1.18;100.00;94203.19;2065116;28;20022;-85
2023/02/03 00:17:07;;;;;;;6.30;1.20;;;;;;;1.16;100.00;94205.41;2067712;28;20467;-86
2023/02/03 00:18:08;;;;;;;1.38;1.00;;;;;;;1.20;100.00;94207.06;2065224;28;20030;-85
2023/02/03 00:19:09;;;;;;;3.38;1.65;;;;;;;1.18;100.00;94205.84;2067194;28;20022;-85
2023/02/03 00:20:11;;;;;;;2.55;0.93;;;;;;;1.13;100.00;94200.78;2055097;28;20019;-86
2023/02/03 00:21:13;;;;;;;2.83;1.10;;;;;;;1.11;100.00;94203.00;2052689;28;20023;-86
2023/02/03 00:22:14;;;;;;;3.20;1.25;;;;;;;1.16;100.00;94203.53;2051625;28;20027;-87
2023/02/03 00:23:15;;;;;;;3.42;1.20;;;;;;;1.15;100.00;94201.25;2058854;28;20023;-85
2023/02/03 00:24:19;;;;;;;1.52;1.00;;;;;;;1.14;100.00;94195.22;2072775;28;20028;-86
2023/02/03 00:25:20;;;;;;;2.17;1.05;;;;;;;1.13;100.00;94198.91;2064919;28;20034;-86
2023/02/03 00:26:22;;;;;;;2.42;1.02;;;;;;;1.10;100.00;94202.22;2072907;28;20084;-86
2023/02/03 00:27:23;;;;;;;3.80;1.23;;;;;;;1.24;100.00;94201.91;2072666;28;20022;-85
2023/02/03 00:28:27;;;;;;;3.70;0.85;;;;;;;1.19;100.00;94196.84;2058977;28;20053;-85
2023/02/03 00:29:27;;;;;;;2.63;1.20;;;;;;;1.29;100.00;94206.94;2066195;28;20023;-84
2023/02/03 00:30:34;;;;;;;3.70;1.13;;;;;;;1.29;100.00;94198.28;2064874;28;20470;-85
2023/02/03 00:31:35;;;;;;;1.40;0.95;;;;;;;1.20;100.00;94193.88;2072328;28;20030;-86
2023/02/03 00:32:37;;;;;;;2.33;1.20;;;;;;;1.15;100.00;94199.38;2069629;28;20018;-85
2023/02/03 00:33:38;;;;;;;1.58;1.20;;;;;;;1.14;100.00;94195.22;2056915;28;20018;-86
2023/02/03 00:34:39;;;;;;;1.80;0.90;;;;;;;1.49;100.00;94197.38;2056794;28;20022;-85
2023/02/03 00:35:40;;;;;;;4.90;1.23;;;;;;;1.70;100.00;94199.88;2049730;28;20024;-86
2023/02/03 00:36:41;;;;;;;2.90;0.98;;;;;;;1.49;100.00;94200.00;2054007;28;20022;-87
2023/02/03 00:37:42;;;;;;;3.75;1.40;;;;;;;1.40;100.00;94207.25;2063562;28;20379;-87
2023/02/03 00:38:43;;;;;;;1.25;0.90;;;;;;;1.38;100.00;94201.56;2072735;28;20026;-85
2023/02/03 00:39:44;;;;;;;1.45;1.00;;;;;;;1.77;100.00;94206.13;2064744;28;20030;-84
2023/02/03 00:40:52;;;;;;;1.88;1.00;;;;;;;1.52;100.00;94213.28;2046999;28;20078;-88
2023/02/03 00:41:53;;;;;;;1.98;0.95;;;;;;;1.56;100.00;94207.38;2062495;28;20113;-84
2023/02/03 00:42:54;;;;;;;3.03;0.80;;;;;;;1.46;100.00;94211.97;2055647;28;20022;-85
2023/02/03 00:43:55;;;;;;;3.28;1.10;;;;;;;1.61;100.00;94205.25;2054808;28;20054;-86
2023/02/03 00:44:56;;;;;;;2.42;1.10;;;;;;;1.44;100.00;94211.53;2062998;28;20084;-85
2023/02/03 00:45:57;;;;;;;1.55;1.10;;;;;;;1.31;100.00;94211.88;2064651;28;20037;-86
2023/02/03 00:46:58;;;;;;;2.70;0.85;;;;;;;1.49;100.00;94213.97;2064119;28;20026;-86
2023/02/03 00:47:59;;;;;;;1.40;0.90;;;;;;;1.56;100.00;94207.38;2062633;28;20038;-84
2023/02/03 00:49:00;;;;;;;2.03;0.95;;;;;;;1.48;100.00;94209.00;2058506;28;20045;-86
2023/02/03 00:50:03;;;;;;;2.15;1.00;;;;;;;1.60;100.00;94216.91;2056674;28;20019;-88
2023/02/03 00:51:09;;;;;;;2.65;0.90;;;;;;;1.42;100.00;94211.09;2050335;28;20035;-86
2023/02/03 00:52:10;;;;;;;2.55;0.88;;;;;;;1.34;100.00;94209.34;2056342;28;20019;-87
2023/02/03 00:53:11;;;;;;;2.63;1.00;;;;;;;1.28;100.00;94213.31;2056498;28;20364;-86
2023/02/03 00:54:12;;;;;;;1.15;0.70;;;;;;;1.22;100.00;94211.97;2056703;28;20508;-86
2023/02/03 00:55:13;;;;;;;1.42;0.95;;;;;;;1.19;100.00;94215.28;2064549;28;20029;-85
2023/02/03 00:56:14;;;;;;;3.65;1.15;;;;;;;1.15;100.00;94220.44;2048850;28;20054;-85
2023/02/03 00:57:15;;;;;;;1.25;0.80;;;;;;;1.20;100.00;94220.22;2049644;28;20670;-87
2023/02/03 00:58:16;;;;;;;2.95;1.00;;;;;;;1.16;100.00;94223.84;2057675;28;20031;-87
2023/02/03 00:59:17;;;;;;;1.65;1.00;;;;;;;1.20;100.00;94225.47;2071728;28;20018;-88
2023/02/03 01:00:19;;;;;;;2.65;1.17;;;;;;;1.37;100.00;94227.13;2072648;28;20391;-86
2023/02/03 01:01:20;;;;;;;1.35;1.00;;;;;;;1.38;100.00;94230.53;2050499;28;20027;-87
2023/02/03 01:02:21;;;;;;;3.53;1.20;;;;;;;1.33;100.00;94223.63;2050909;28;20053;-88
2023/02/03 01:03:22;;;;;;;2.92;1.05;;;;;;;1.29;100.00;94222.75;2049603;28;20027;-85
2023/02/03 01:04:23;;;;;;;2.60;1.00;;;;;;;1.29;100.00;94220.09;2062603;28;20015;-87
2023/02/03 01:05:24;;;;;;;2.20;0.95;;;;;;;1.47;100.00;94218.78;2059224;28;20026;-85
2023/02/03 01:06:25;;;;;;;3.63;1.00;;;;;;;1.33;100.00;94213.09;2054749;28;20022;-88
2023/02/03 01:07:29;;;;;;;1.67;1.08;;;;;;;1.29;100.00;94212.22;2059358;28;20161;-85
2023/02/03 01:08:31;;;;;;;1.55;0.93;;;;;;;1.22;100.00;94206.72;2057268;28;20030;-85
2023/02/03 01:09:34;;;;;;;1.55;0.82;;;;;;;1.19;100.00;94205.53;2046146;28;20023;-87
2023/02/03 01:10:37;;;;;;;1.35;0.90;;;;;;;1.37;100.00;94198.16;2046256;28;20026;-86
2023/02/03 01:11:38;;;;;;;2.97;0.93;;;;;;;1.55;100.00;94206.59;2041367;29;20043;-88
2023/02/03 01:12:39;;;;;;;1.25;1.00;;;;;;;1.40;100.00;94205.38;2058385;28;20026;-88
2023/02/03 01:13:40;;;;;;;1.30;0.80;;;;;;;1.29;100.00;94204.31;2056331;28;20057;-86
2023/02/03 01:14:41;;;;;;;1.38;1.00;;;;;;;1.18;100.00;94205.84;2061762;28;20050;-85
2023/02/03 01:15:46;;;;;;;2.28;0.82;;;;;;;1.16;100.00;94205.41;2062377;28;20496;-87
2023/02/03 01:16:47;;;;;;;3.33;1.30;;;;;;;1.13;100.00;94203.41;2063313;28;20026;-87
2023/02/03 01:17:48;;;;;;;1.45;0.90;;;;;;;1.11;100.00;94214.28;2056493;28;20435;-86
2023/02/03 01:18:50;;;;;;;3.70;0.90;;;;;;;1.09;100.00;94200.66;2044042;28;20735;-86
2023/02/03 01:19:51;;;;;;;0.95;0.90;;;;;;;1.00;100.00;94200.78;2051397;28;20085;-87
2023/02/03 01:20:52;;;;;;;2.25;0.93;;;;;;;0.97;100.00;94198.81;2055154;28;20022;-85
2023/02/03 01:21:53;;;;;;;1.70;0.98;;;;;;;0.95;100.00;94202.84;2071892;28;20025;-86
2023/02/03 01:22:54;;;;;;;1.70;0.93;;;;;;;1.02;100.00;94204.97;2072917;28;20036;-85
2023/02/03 01:23:57;;;;;;;2.92;1.00;;;;;;;1.08;100.00;94211.53;2048407;28;20108;-86
2023/02/03 01:24:58;;;;;;;1.75;1.00;;;;;;;1.00;100.00;94198.13;2043747;28;20031;-85
2023/02/03 01:26:09;;;;;;;1.50;0.82;;;;;;;1.23;100.00;94203.75;2055428;28;20018;-87
2023/02/03 01:27:10;;;;;;;2.10;0.98;;;;;;;1.56;100.00;94210.00;2055097;28;20302;-88
2023/02/03 01:28:12;;;;;;;1.60;0.80;;;;;;;1.45;100.00;94209.69;2043044;28;20637;-86
2023/02/03 01:29:13;;;;;;;0.95;0.80;;;;;;;1.51;100.00;94218.91;2056697;28;20443;-87
2023/02/03 01:30:14;;;;;;;1.45;0.80;;;;;;;1.60;100.00;94211.63;2062357;28;20372;-86
2023/02/03 01:31:18;;;;;;;2.25;0.82;;;;;;;1.55;100.00;94217.13;2062675;28;20026;-85
2023/02/03 01:32:19;;;;;;;3.72;1.00;;;;;;;1.57;100.00;94219.44;2062329;28;20019;-86
2023/02/03 01:33:20;;;;;;;1.67;0.80;;;;;;;1.45;100.00;94214.97;2067167;28;20400;-88
2023/02/03 01:34:21;;;;;;;2.10;1.00;;;;;;;1.42;100.00;94216.38;2072679;28;20033;-87
2023/02/03 01:35:22;;;;;;;4.00;1.00;;;;;;;1.28;100.00;94213.31;2056246;28;20046;-86
2023/02/03 01:36:25;;;;;;;1.20;0.90;;;;;;;1.22;100.00;94211.97;2050327;28;20035;-86
2023/02/03 01:37:26;;;;;;;1.63;0.90;;;;;;;1.15;100.00;94204.63;2057938;28;20045;-85
2023/02/03 01:38:27;;;;;;;2.13;0.80;;;;;;;1.13;100.00;94211.31;2068960;28;20040;-86
2023/02/03 01:39:28;;;;;;;3.42;0.90;;;;;;;1.11;100.00;94213.53;2058598;28;20025;-86
2023/02/03 01:40:29;;;;;;;1.15;0.70;;;;;;;1.11;100.00;94219.56;2064404;28;20081;-86
2023/02/03 01:41:34;;;;;;;1.65;0.95;;;;;;;1.04;100.00;94211.41;2072563;28;20111;-86
2023/02/03 01:42:34;;;;;;;2.55;0.85;;;;;;;1.07;100.00;94215.28;2048480;28;20160;-85
2023/02/03 01:43:38;;;;;;;1.05;0.70;;;;;;;1.02;100.00;94220.75;2045241;29;20496;-86
2023/02/03 01:44:49;;;;;;;3.25;0.93;;;;;;;1.03;100.00;94215.16;2056511;28;20481;-86
2023/02/03 01:45:51;;;;;;;2.72;0.70;;;;;;;1.10;100.00;94219.88;2055883;28;20022;-86
2023/02/03 01:46:52;;;;;;;0.93;0.80;;;;;;;1.06;100.00;94216.38;2064429;28;20508;-87
2023/02/03 01:47:58;;;;;;;0.85;0.80;;;;;;;1.05;100.00;94209.56;2064096;28;20033;-86
2023/02/03 01:49:13;;;;;;;2.63;0.90;;;;;;;0.98;100.00;94208.25;2055758;28;20144;-88
2023/02/03 01:50:21;;;;;;;2.17;0.80;;;;;;;0.96;100.00;94201.75;2056054;28;20514;-85
2023/02/03 01:51:22;;;;;;;1.42;0.80;;;;;;;0.90;100.00;94201.22;2058049;28;20567;-87
2023/02/03 01:52:24;;;;;;;1.58;0.90;;;;;;;0.90;100.00;94198.56;2066333;28;20022;-87
2023/02/03 01:53:25;;;;;;;3.50;0.80;;;;;;;0.96;100.00;94202.53;2070248;28;20029;-86
2023/02/03 01:54:31;;;;;;;1.70;0.88;;;;;;;0.93;100.00;94208.47;2070207;28;20064;-86
2023/02/03 01:55:39;;;;;;;0.75;0.65;;;;;;;1.09;100.00;94197.28;2064976;28;20038;-88
2023/02/03 01:56:44;;;;;;;3.67;1.00;;;;;;;1.12;100.00;94194.75;2061405;28;20157;-86
2023/02/03 01:58:07;;;;;;;1.05;0.50;;;;;;;1.06;100.00;94197.94;2047906;28;20494;-87
2023/02/03 01:59:11;;;;;;;0.90;0.70;;;;;;;1.26;100.00;94187.28;2059533;28;20108;-86
2023/02/03 02:00:13;;;;;;;1.50;0.70;;;;;;;1.41;100.00;94187.75;2069496;28;20116;-85
2023/02/03 02:01:14;;;;;;;0.60;0.60;;;;;;;1.26;100.00;94179.38;2065075;28;20026;-88
2023/02/03 02:02:15;;;;;;;1.08;0.80;;;;;;;1.26;100.00;94179.38;2064810;28;20026;-88
2023/02/03 02:03:19;;;;;;;0.82;0.50;;;;;;;1.20;100.00;94177.31;2063904;28;20820;-86
2023/02/03 02:04:25;;;;;;;1.67;0.77;;;;;;;1.07;100.00;94175.78;2064517;28;20108;-86
2023/02/03 02:05:49;;;;;;;2.50;0.80;;;;;;;0.91;100.00;94162.50;2058422;28;20108;-86
2023/02/03 02:06:50;;;;;;;1.42;1.08;;;;;;;0.94;100.00;94159.97;2065297;28;20492;-85
2023/02/03 02:07:51;;;;;;;1.25;0.52;;;;;;;0.99;100.00;94156.38;2063996;28;20026;-87
2023/02/03 02:08:52;;;;;;;1.58;0.60;;;;;;;0.93;100.00;94157.69;2058375;28;20097;-87
2023/02/03 02:09:55;;;;;;;0.82;0.63;;;;;;;0.82;100.00;94148.69;2072025;28;20446;-86
2023/02/03 02:10:58;;;;;;;1.83;0.50;;;;;;;0.88;100.00;94148.16;2062031;28;20031;-85
2023/02/03 02:11:59;;;;;;;0.80;0.63;;;;;;;0.81;100.00;94149.78;2054051;28;20023;-87
2023/02/03 02:13:02;;;;;;;1.95;0.60;;;;;;;0.88;100.00;94156.03;2065049;28;20026;-84
2023/02/03 02:14:03;;;;;;;0.50;0.50;;;;;;;0.88;100.00;94156.03;2048593;28;20031;-86
2023/02/03 02:15:05;;;;;;;1.85;0.60;;;;;;;0.81;100.00;94147.91;2065415;28;20030;-88
2023/02/03 02:16:15;;;;;;;0.65;0.60;;;;;;;0.77;100.00;94148.91;2060803;28;20491;-86
2023/02/03 02:29:16;;;;;;;;;;;;;;;0.84;100.00;94162.28;2632953;22;20072;-83
2023/02/03 02:30:35;;;;;;;0.65;0.50;;;;;;;0.88;100.00;94166.56;2611484;22;19906;-84
2023/02/03 02:31:42;;;;;;;1.48;0.63;;;;;;;0.85;100.00;94171.72;2602048;22;20004;-84
2023/02/03 02:33:16;;;;;;;1.02;0.60;;;;;;;0.92;100.00;94180.59;2587175;22;20517;-83
2023/02/03 02:35:01;;;;;;;0.68;0.68;;;;;;;0.86;100.00;94183.78;2586976;22;20055;-84
2023/02/03 02:36:28;;;;;;;1.25;0.75;;;;;;;0.87;100.00;94182.66;2604038;22;20028;-83
2023/02/03 02:37:50;;;;;;;1.25;0.57;;;;;;;0.84;100.00;94181.47;2591097;22;20134;-85
2023/02/03 02:39:00;;;;;;;0.85;0.60;;;;;;;0.85;100.00;94182.25;2593932;22;20102;-83
2023/02/03 02:40:24;;;;;;;0.50;0.50;;;;;;;0.94;100.00;94185.53;2587390;22;20053;-83
2023/02/03 02:41:43;;;;;;;0.60;0.50;;;;;;;1.04;100.00;94190.38;2582921;22;20341;-83
2023/02/03 02:43:11;;;;;;;2.28;0.75;;;;;;;0.99;100.00;94191.34;2588843;22;20445;-83
2023/02/03 02:44:31;;;;;;;2.17;0.70;;;;;;;0.93;100.00;94190.03;2584505;22;20007;-83
2023/02/03 02:45:45;;;;;;;1.35;0.80;;;;;;;0.89;100.00;94180.50;2602171;22;20004;-84
2023/02/03 02:46:50;;;;;;;2.05;0.63;;;;;;;0.84;100.00;94181.47;2598311;22;20007;-83
2023/02/03 02:48:05;;;;;;;1.17;0.50;;;;;;;0.88;100.00;94171.84;2586408;22;20011;-84
2023/02/03 02:49:14;;;;;;;2.28;0.65;;;;;;;0.85;100.00;94155.91;2592000;22;20027;-83
2023/02/03 02:50:22;;;;;;;0.88;0.60;;;;;;;0.90;100.00;94159.09;2587956;22;20004;-82
2023/02/03 02:51:28;;;;;;;0.47;0.40;;;;;;;0.92;100.00;94138.50;2586327;22;20051;-83
2023/02/03 02:52:36;;;;;;;0.90;0.70;;;;;;;0.94;100.00;94144.19;2574576;22;20009;-86
2023/02/03 02:53:54;;;;;;;2.63;0.60;;;;;;;0.90;100.00;94138.03;2586666;22;20018;-83
2023/02/03 02:55:01;;;;;;;0.68;0.57;;;;;;;0.99;100.00;94130.03;2588993;22;20484;-84
2023/02/03 02:56:05;;;;;;;0.98;0.60;;;;;;;0.96;100.00;94126.19;2575180;22;20004;-83
2023/02/03 02:57:10;;;;;;;1.13;1.02;;;;;;;1.06;100.00;94125.00;2574600;22;20027;-84
2023/02/03 02:58:16;;;;;;;1.70;0.60;;;;;;;1.07;100.00;94137.06;2586157;22;20004;-86
2023/02/03 02:59:17;;;;;;;0.63;0.50;;;;;;;1.12;100.00;94123.66;2574219;22;20008;-83
2023/02/03 03:00:19;;;;;;;1.95;0.50;;;;;;;1.08;100.00;94106.22;2572631;23;20004;-84
2023/02/03 03:01:20;;;;;;;2.05;0.60;;;;;;;1.06;100.00;94098.69;2573452;22;20058;-85
2023/02/03 03:02:21;;;;;;;1.40;0.60;;;;;;;1.01;100.00;94101.53;2572869;23;20099;-85
2023/02/03 03:03:23;;;;;;;0.50;0.50;;;;;;;1.03;100.00;94103.81;2572664;22;20330;-84
2023/02/03 03:04:32;;;;;;;1.27;0.60;;;;;;;1.33;100.00;94107.75;2572776;22;20060;-84
2023/02/03 03:05:35;;;;;;;0.85;0.50;;;;;;;1.19;100.00;94107.31;2577868;22;20040;-83
2023/02/03 03:06:47;;;;;;;0.93;0.70;;;;;;;1.07;100.00;94100.19;2599453;22;20005;-83
2023/02/03 03:07:54;;;;;;;1.20;0.60;;;;;;;1.02;100.00;94112.84;2610884;22;20003;-85
2023/02/03 03:09:01;;;;;;;1.23;0.50;;;;;;;0.96;100.00;94126.19;2615434;22;20460;-84
2023/02/03 03:10:09;;;;;;;1.25;0.50;;;;;;;1.18;100.00;94137.38;2599876;22;20031;-84
2023/02/03 03:11:11;;;;;;;1.08;0.88;;;;;;;1.11;100.00;94145.06;2575876;22;20008;-83
2023/02/03 03:12:31;;;;;;;0.70;0.57;;;;;;;1.05;100.00;94149.78;2573319;22;20005;-84
2023/02/03 03:13:43;;;;;;;0.55;0.55;;;;;;;1.08;100.00;94138.59;2582822;22;20087;-84
2023/02/03 03:14:49;;;;;;;0.98;0.70;;;;;;;1.08;100.00;94146.50;2589585;22;20054;-83
2023/02/03 03:15:54;;;;;;;0.88;0.55;;;;;;;1.45;100.00;94138.56;2586887;22;20012;-83
2023/02/03 03:17:01;;;;;;;1.85;0.65;;;;;;;1.42;100.00;94145.25;2575756;22;20447;-84
2023/02/03 03:18:13;;;;;;;1.38;0.63;;;;;;;1.44;100.00;94148.31;2575683;22;20012;-83
2023/02/03 03:19:20;;;;;;;1.00;0.70;;;;;;;1.40;100.00;94155.34;2577429;22;20008;-83
2023/02/03 03:20:25;;;;;;;0.60;0.60;;;;;;;1.27;100.00;94156.44;2576294;22;20331;-84
2023/02/03 03:21:33;;;;;;;0.60;0.60;;;;;;;1.17;100.00;94152.41;2586275;22;20004;-85
2023/02/03 03:22:40;;;;;;;0.65;0.63;;;;;;;1.12;100.00;94157.13;2599118;22;20003;-83
2023/02/03 03:23:47;;;;;;;1.00;0.60;;;;;;;1.11;100.00;94158.25;2585811;22;20000;-84
2023/02/03 03:24:59;;;;;;;3.03;0.60;;;;;;;1.17;100.00;94156.91;2586351;22;20012;-83
2023/02/03 03:26:11;;;;;;;1.60;0.70;;;;;;;1.16;100.00;94158.00;2576890;22;20047;-83
2023/02/03 03:27:22;;;;;;;1.30;0.68;;;;;;;1.06;100.00;94150.56;2590128;22;20444;-85
2023/02/03 03:28:32;;;;;;;1.92;0.55;;;;;;;1.11;100.00;94139.81;2585035;23;20358;-85
2023/02/03 03:29:39;;;;;;;1.60;0.68;;;;;;;1.06;100.00;94140.03;2575131;22;20001;-83
2023/02/03 03:30:41;;;;;;;0.70;0.50;;;;;;;1.28;100.00;94131.66;2582571;23;20082;-83
2023/02/03 03:31:43;;;;;;;0.85;0.50;;;;;;;1.19;100.00;94126.53;2557846;23;20000;-82
2023/02/03 03:32:45;;;;;;;0.60;0.50;;;;;;;1.29;100.00;94125.31;2558586;23;20088;-83
2023/02/03 03:33:47;;;;;;;0.73;0.50;;;;;;;1.21;100.00;94126.19;2570344;23;20671;-83
2023/02/03 03:34:54;;;;;;;1.02;0.50;;;;;;;1.14;100.00;94115.44;2558180;23;20450;-85
2023/02/03 03:36:08;;;;;;;0.90;0.60;;;;;;;1.09;100.00;94124.31;2559928;23;20024;-84
2023/02/03 03:37:23;;;;;;;1.25;0.70;;;;;;;1.09;100.00;94103.25;2588312;22;20004;-83
2023/02/03 03:38:39;;;;;;;3.25;0.60;;;;;;;1.32;100.00;94100.16;2582481;23;20004;-84
2023/02/03 03:39:57;;;;;;;0.75;0.70;;;;;;;1.43;100.00;94109.91;2564190;23;20051;-82
2023/02/03 03:41:07;;;;;;;0.65;0.47;;;;;;;1.37;100.00;94115.75;2576397;22;20004;-83
2023/02/03 03:42:17;;;;;;;1.02;0.70;;;;;;;1.33;100.00;94110.38;2597101;22;20006;-84
2023/02/03 03:43:22;;;;;;;1.85;0.88;;;;;;;1.19;100.00;94134.44;2592963;22;20008;-83
2023/02/03 03:44:34;;;;;;;0.95;0.90;;;;;;;1.14;100.00;94144.38;2571018;23;20004;-84
2023/02/03 03:45:51;;;;;;;2.60;0.80;;;;;;;1.29;100.00;94145.59;2562302;23;20083;-84
2023/02/03 03:47:06;;;;;;;1.42;0.85;;;;;;;1.47;100.00;94144.25;2563392;23;20056;-84
2023/02/03 03:48:18;;;;;;;0.77;0.70;;;;;;;1.46;100.00;94137.47;2563288;23;20044;-83
2023/02/03 03:49:23;;;;;;;1.13;0.85;;;;;;;1.38;100.00;94133.84;2572276;23;20016;-84
2023/02/03 03:50:31;;;;;;;0.80;0.80;;;;;;;1.52;100.00;94133.47;2558908;23;20447;-85
2023/02/03 03:51:43;;;;;;;0.95;0.70;;;;;;;1.36;100.00;94128.16;2560953;23;20714;-82
2023/02/03 03:52:46;;;;;;;1.63;0.80;;;;;;;1.31;100.00;94132.84;2586639;22;20095;-84
2023/02/03 03:53:50;;;;;;;2.05;0.80;;;;;;;1.26;100.00;94149.66;2581599;23;20003;-83
2023/02/03 03:54:54;;;;;;;1.67;0.90;;;;;;;1.29;100.00;94148.25;2558676;23;20096;-86
2023/02/03 03:56:02;;;;;;;2.55;1.08;;;;;;;1.58;100.00;94147.19;2570307;23;20439;-84
2023/02/03 03:57:14;;;;;;;1.05;0.70;;;;;;;1.50;100.00;94139.09;2574170;22;20447;-84
2023/02/03 03:58:28;;;;;;;3.63;0.85;;;;;;;1.40;100.00;94139.53;2571612;23;20004;-83
2023/02/03 03:59:39;;;;;;;1.05;0.80;;;;;;;1.25;100.00;94135.72;2563159;23;20512;-84
2023/02/03 04:00:53;;;;;;;1.25;0.70;;;;;;;1.20;100.00;94135.19;2561446;23;20016;-84
2023/02/03 04:01:54;;;;;;;2.65;0.90;;;;;;;1.14;100.00;94124.13;2587719;22;20447;-85
2023/02/03 04:02:59;;;;;;;1.10;0.90;;;;;;;1.10;100.00;94130.34;2595179;22;20004;-84
2023/02/03 04:04:06;;;;;;;2.00;0.80;;;;;;;1.12;100.00;94128.16;2570888;23;20088;-82
2023/02/03 04:05:15;;;;;;;0.88;0.60;;;;;;;1.09;100.00;94113.03;2559745;23;20040;-85
2023/02/03 04:06:22;;;;;;;1.70;0.95;;;;;;;1.05;100.00;94107.66;2561002;23;20017;-84
2023/02/03 04:07:39;;;;;;;0.75;0.75;;;;;;;1.09;100.00;94116.41;2571126;23;20005;-85
2023/02/03 04:08:41;;;;;;;1.80;0.93;;;;;;;1.10;100.00;94110.09;2563953;23;20083;-84
2023/02/03 04:09:42;;;;;;;3.30;0.70;;;;;;;1.16;100.00;94114.00;2582608;22;20473;-83
2023/02/03 04:10:43;;;;;;;1.00;0.70;;;;;;;1.06;100.00;94114.47;2582724;22;20007;-84
2023/02/03 04:12:02;;;;;;;3.45;0.80;;;;;;;1.08;100.00;94116.75;2582471;22;19999;-83
2023/02/03 04:13:05;;;;;;;4.68;0.82;;;;;;;1.03;100.00;94130.16;2581786;23;20004;-84
2023/02/03 04:14:06;;;;;;;0.98;0.70;;;;;;;0.95;100.00;94126.53;2570425;22;20000;-83
2023/02/03 04:15:07;;;;;;;0.93;0.70;;;;;;;0.91;100.00;94141.44;2581962;23;20046;-84
2023/02/03 04:16:08;;;;;;;1.10;0.90;;;;;;;0.89;100.00;94135.75;2569835;23;20024;-84
2023/02/03 04:17:13;;;;;;;1.42;0.80;;;;;;;0.91;100.00;94151.97;2582273;23;20008;-83
2023/02/03 04:18:15;;;;;;;1.48;0.80;;;;;;;0.95;100.00;94150.97;2558853;23;20038;-81
2023/02/03 04:19:16;;;;;;;2.00;0.85;;;;;;;0.90;100.00;94147.81;2557516;23;20005;-83
2023/02/03 04:20:17;;;;;;;1.90;0.85;;;;;;;0.88;100.00;94153.41;2582509;22;20039;-85
2023/02/03 04:21:18;;;;;;;1.20;0.80;;;;;;;0.98;100.00;94152.97;2582027;23;20631;-81
2023/02/03 04:22:19;;;;;;;0.88;0.70;;;;;;;0.92;100.00;94156.13;2557632;23;20113;-83
2023/02/03 04:23:21;;;;;;;0.75;0.70;;;;;;;1.13;100.00;94156.03;2557304;23;20037;-84
2023/02/03 04:24:23;;;;;;;1.15;0.73;;;;;;;1.18;100.00;94153.16;2569181;23;20008;-84
2023/02/03 04:25:25;;;;;;;1.70;0.82;;;;;;;1.26;100.00;94136.50;2557196;23;20005;-84
2023/02/03 04:26:26;;;;;;;1.80;0.60;;;;;;;1.15;100.00;94140.69;2581937;23;20004;-82
2023/02/03 04:27:28;;;;;;;3.33;0.80;;;;;;;1.03;100.00;94136.19;2557084;23;20001;-84
2023/02/03 04:28:29;;;;;;;0.75;0.75;;;;;;;1.14;100.00;94139.13;2560874;22;20013;-84
2023/02/03 04:29:30;;;;;;;1.40;0.90;;;;;;;1.01;100.00;94133.13;2582084;22;20498;-82
2023/02/03 04:30:32;;;;;;;1.55;0.68;;;;;;;0.97;100.00;94130.38;2594562;22;20019;-83
2023/02/03 04:31:37;;;;;;;0.80;0.70;;;;;;;0.92;100.00;94137.69;2581319;22;20014;-85
2023/02/03 04:32:38;;;;;;;0.70;0.70;;;;;;;0.90;100.00;94137.28;2570863;22;20010;-84
2023/02/03 04:33:39;;;;;;;1.85;0.80;;;;;;;1.08;100.00;94143.84;2582786;22;20095;-82
2023/02/03 04:34:40;;;;;;;1.75;0.80;;;;;;;1.13;100.00;94137.59;2584563;22;20000;-85
2023/02/03 04:35:41;;;;;;;2.30;0.90;;;;;;;1.07;100.00;94144.97;2570876;22;20004;-85
2023/02/03 04:36:44;;;;;;;1.35;0.65;;;;;;;1.06;100.00;94155.81;2570518;22;20019;-85
2023/02/03 04:37:46;;;;;;;0.85;0.65;;;;;;;1.45;100.00;94141.97;2570919;22;20004;-84
2023/02/03 04:38:49;;;;;;;1.73;0.80;;;;;;;1.51;100.00;94137.22;2569999;22;20478;-84
2023/02/03 04:39:54;;;;;;;0.90;0.70;;;;;;;1.47;100.00;94142.38;2583535;22;20469;-85
2023/02/03 04:40:55;;;;;;;3.70;0.75;;;;;;;1.33;100.00;94139.34;2581977;22;20111;-85
2023/02/03 04:41:56;;;;;;;2.53;0.80;;;;;;;1.23;100.00;94135.31;2568693;23;20017;-84
2023/02/03 04:42:57;;;;;;;1.73;0.90;;;;;;;1.18;100.00;94143.41;2569154;22;20011;-83
2023/02/03 04:43:58;;;;;;;1.20;1.00;;;;;;;1.15;100.00;94136.19;2582452;22;20023;-83
2023/02/03 04:44:59;;;;;;;3.15;0.90;;;;;;;1.21;100.00;94145.38;2582615;22;20008;-83
2023/02/03 04:46:00;;;;;;;2.03;0.70;;;;;;;1.29;100.00;94142.97;2582421;22;20000;-84
2023/02/03 04:47:01;;;;;;;1.55;0.98;;;;;;;1.41;100.00;94154.25;2569484;22;20415;-83
2023/02/03 04:48:03;;;;;;;1.63;0.73;;;;;;;1.55;100.00;94140.72;2582778;23;20088;-83
2023/02/03 04:49:04;;;;;;;1.65;0.60;;;;;;;1.45;100.00;94141.97;2581901;22;20003;-84
2023/02/03 04:50:06;;;;;;;2.33;0.70;;;;;;;1.35;100.00;94134.50;2569499;22;20000;-84
2023/02/03 04:51:10;;;;;;;1.38;0.68;;;;;;;1.27;100.00;94138.00;2581896;22;20394;-85
2023/02/03 04:52:14;;;;;;;2.25;0.80;;;;;;;1.22;100.00;94144.28;2595594;22;20393;-83
2023/02/03 04:53:15;;;;;;;1.00;0.70;;;;;;;1.24;100.00;94130.78;2582244;22;20008;-84
2023/02/03 04:54:16;;;;;;;0.85;0.70;;;;;;;1.34;100.00;94126.94;2568539;23;20055;-83
2023/02/03 04:55:16;;;;;;;1.20;0.68;;;;;;;1.32;100.00;94135.19;2569582;23;20009;-83
2023/02/03 04:56:17;;;;;;;1.35;0.82;;;;;;;1.36;100.00;94132.63;2582096;22;20030;-83
2023/02/03 04:57:22;;;;;;;1.10;0.77;;;;;;;1.29;100.00;94138.47;2582220;22;20023;-84
2023/02/03 04:58:27;;;;;;;3.42;0.75;;;;;;;1.18;100.00;94138.13;2571874;22;20004;-83
2023/02/03 04:59:28;;;;;;;1.48;0.80;;;;;;;1.15;100.00;94138.81;2573293;22;20012;-83
2023/02/03 05:00:29;;;;;;;1.30;0.60;;;;;;;1.39;100.00;94139.88;2571748;22;20059;-84
2023/02/03 05:01:31;;;;;;;1.95;0.68;;;;;;;1.29;100.00;94132.44;2570673;22;20079;-84
2023/02/03 05:02:32;;;;;;;0.95;0.70;;;;;;;1.29;100.00;94137.69;2569729;22;20035;-84
2023/02/03 05:03:36;;;;;;;1.77;0.60;;;;;;;1.29;100.00;94138.47;2581982;22;20015;-85
2023/02/03 05:04:37;;;;;;;2.03;0.70;;;;;;;1.16;100.00;94144.84;2595471;22;20008;-86
2023/02/03 05:05:38;;;;;;;1.98;0.88;;;;;;;1.13;100.00;94156.03;2582298;22;20000;-83
2023/02/03 05:06:39;;;;;;;0.60;0.60;;;;;;;1.17;100.00;94152.41;2569918;22;20074;-84
2023/02/03 05:07:40;;;;;;;1.73;0.75;;;;;;;1.09;100.00;94147.25;2582084;22;20372;-84
2023/02/03 05:08:41;;;;;;;1.40;0.70;;;;;;;1.50;100.00;94149.63;2594309;22;20330;-84
2023/02/03 05:09:43;;;;;;;2.58;0.90;;;;;;;1.42;100.00;94150.53;2581492;23;20003;-83
2023/02/03 05:10:45;;;;;;;3.60;0.85;;;;;;;1.27;100.00;94159.09;2582241;22;20513;-84
2023/02/03 05:11:46;;;;;;;1.88;1.08;;;;;;;1.27;100.00;94151.19;2582600;22;20038;-85
2023/02/03 05:12:47;;;;;;;1.30;1.00;;;;;;;1.23;100.00;94137.16;2583183;22;20500;-82
2023/02/03 05:13:48;;;;;;;1.75;1.17;;;;;;;1.33;100.00;94136.72;2572876;23;20007;-84
2023/02/03 05:14:49;;;;;;;2.72;1.55;;;;;;;1.21;100.00;94120.91;2585134;22;20016;-83
2023/02/03 05:15:50;;;;;;;9.30;4.38;;;;;;;1.14;100.00;94118.06;2583401;22;20004;-84
2023/02/03 05:16:51;;;;;;;5.70;2.63;;;;;;;1.08;100.00;94114.13;2583433;22;20342;-85